Main page
METAR-TAF:

METAR-TAF

Airports :

Alice Springs, Australia

Alice Springs Airport

latitude: 23-48S, longitude: 133-53E, elevation: 545 m

Current weather observation

The report was made 29 minutes ago, at 02:00 UTC
Wind 13 kt from the East
Temperature 31°C
Humidity 17%
Pressure 1020 hPa
Visibility 10 km or more

METAR: YBAS 220200Z AUTO 09013KT 9999 // NCD 31/03 Q1020 RF00.0/000.0

Time: 11:59 (02:29 UTC)

Forecast

The report was made 3 hours and 14 minutes ago, at 23:15 UTC
Forecast valid from 22 at 00 UTC to 22 at 24 UTC
Wind 12 kt from the East/Southeast
Visibility 10 km or more
no clouds below 1500 m and no cumulonimbus
From 22 at 1000 UTC
Wind 6 kt from the East/Southeast
Visibility 10 km or more
no clouds below 1500 m and no cumulonimbus

TAF: YBAS 212315Z 2200/2224 11012KT CAVOK FM221000 11006KT CAVOK

Weather observations and forecasts of more than 4000 airports (METAR and TAF reports).

The available stations are represented by yellow and red dots on the map.

Hover mouse over dot to see the name of the station.

Then click to see weather observations and forecasts.

To change the map : click on the green buttons with a black cross to zoom in, on the green button with a dash to zoom out, or on the green arrows for adjacent maps.


METAR-TAF: